Terminal Aerodrome Forecast
Issued by NWS

Home | Current Version | Previous Version | Text Only | Print | Product List | Glossary On
Versions: 1 2 3 4 5 6 7 8 9 10 11 12 13 14 15 16 17
000
FTUS43 KBIS 252300
TAFJMS
TAF
KJMS 252324Z 2600/2624 31009KT P6SM SKC
     FM260200 29004KT P6SM SKC
     FM261100 27006KT P6SM SKC
     FM261400 29013KT P6SM SKC
     FM261800 28019G30KT P6SM SCT250=

USA.gov is the U.S. government's official web portal to all federal, state and local government web resources and services.